Time,TemperatureF,DewpointF,PressureIn,WindDirection,WindDirectionDegrees,WindSpeedMPH,WindSpeedGustMPH,Humidity,HourlyPrecipIn,Conditions,Clouds,dailyrainin,SoftwareType,DateUTC
2013-04-15 00:08:00,36.7,32.0,30.25,North,360,0.0,0.0,82,0.00,,,0.00,weatherlink.com 1.10,2013-04-15 04:08:00,
2013-04-15 00:23:00,36.4,30.0,30.25,North,360,0.0,0.0,77,0.00,,,0.00,weatherlink.com 1.10,2013-04-15 04:23:00,
2013-04-15 00:38:00,36.1,30.0,30.25,North,360,0.0,0.0,78,0.00,,,0.00,weatherlink.com 1.10,2013-04-15 04:38:00,
2013-04-15 00:53:00,35.8,30.0,30.25,North,360,0.0,0.0,79,0.00,,,0.00,weatherlink.com 1.10,2013-04-15 04:53:00,
2013-04-15 01:08:00,35.7,30.0,30.26,North,360,0.0,0.0,79,0.00,,,0.00,weatherlink.com 1.10,2013-04-15 05:08:00,
2013-04-15 01:23:00,35.7,30.0,30.25,North,360,0.0,1.0,79,0.00,,,0.00,weatherlink.com 1.10,2013-04-15 05:23:00,
2013-04-15 01:38:00,35.8,30.0,30.26,North,360,0.0,0.0,78,0.00,,,0.00,weatherlink.com 1.10,2013-04-15 05:38:00,
2013-04-15 01:53:00,36.1,30.0,30.25,North,360,0.0,1.0,77,0.00,,,0.00,weatherlink.com 1.10,2013-04-15 05:53:00,
2013-04-15 02:08:00,35.8,30.0,30.25,North,360,0.0,1.0,79,0.00,,,0.00,weatherlink.com 1.10,2013-04-15 06:08:00,
2013-04-15 02:23:00,35.5,30.0,30.25,North,360,0.0,2.0,79,0.00,,,0.00,weatherlink.com 1.10,2013-04-15 06:23:00,
2013-04-15 02:38:00,35.5,30.0,30.25,North,360,0.0,0.0,79,0.00,,,0.00,weatherlink.com 1.10,2013-04-15 06:38:00,
2013-04-15 02:53:00,35.4,30.0,30.25,North,360,0.0,1.0,80,0.00,,,0.00,weatherlink.com 1.10,2013-04-15 06:53:00,
2013-04-15 03:53:00,35.1,30.0,30.27,North,360,0.0,0.0,81,0.00,,,0.00,weatherlink.com 1.10,2013-04-15 07:53:00,
2013-04-15 04:08:00,35.2,30.0,30.27,North,360,0.0,1.0,81,0.00,,,0.00,weatherlink.com 1.10,2013-04-15 08:08:00,
2013-04-15 04:23:00,35.0,29.0,30.28,North,360,0.0,0.0,80,0.00,,,0.00,weatherlink.com 1.10,2013-04-15 08:23:00,
2013-04-15 04:38:00,35.1,29.0,30.29,North,360,0.0,0.0,78,0.00,,,0.00,weatherlink.com 1.10,2013-04-15 08:38:00,
2013-04-15 04:53:00,35.0,30.0,30.30,North,360,0.0,0.0,81,0.00,,,0.00,weatherlink.com 1.10,2013-04-15 08:53:00,
2013-04-15 05:08:00,34.8,29.0,30.30,North,360,0.0,0.0,80,0.00,,,0.00,weatherlink.com 1.10,2013-04-15 09:08:00,
2013-04-15 05:23:00,34.6,29.0,30.31,North,360,0.0,0.0,81,0.00,,,0.00,weatherlink.com 1.10,2013-04-15 09:23:00,
2013-04-15 05:39:00,34.6,30.0,30.32,North,360,0.0,0.0,82,0.00,,,0.00,weatherlink.com 1.10,2013-04-15 09:39:00,
2013-04-15 05:54:00,34.7,30.0,30.33,North,360,0.0,0.0,82,0.00,,,0.00,weatherlink.com 1.10,2013-04-15 09:54:00,
2013-04-15 06:09:00,34.9,30.0,30.34,North,360,0.0,0.0,81,0.00,,,0.00,weatherlink.com 1.10,2013-04-15 10:09:00,
2013-04-15 06:24:00,35.1,30.0,30.34,North,360,0.0,0.0,81,0.00,,,0.00,weatherlink.com 1.10,2013-04-15 10:24:00,
2013-04-15 06:39:00,35.5,31.0,30.34,North,360,0.0,0.0,83,0.00,,,0.00,weatherlink.com 1.10,2013-04-15 10:39:00,
2013-04-15 06:54:00,36.0,31.0,30.35,North,360,0.0,0.0,82,0.00,,,0.00,weatherlink.com 1.10,2013-04-15 10:54:00,
2013-04-15 07:09:00,36.5,32.0,30.35,North,360,0.0,0.0,83,0.00,,,0.00,weatherlink.com 1.10,2013-04-15 11:09:00,
2013-04-15 07:24:00,37.1,31.0,30.35,North,360,0.0,0.0,77,0.00,,,0.00,weatherlink.com 1.10,2013-04-15 11:24:00,
2013-04-15 07:39:00,37.7,30.0,30.36,North,360,0.0,0.0,75,0.00,,,0.00,weatherlink.com 1.10,2013-04-15 11:39:00,
2013-04-15 07:54:00,38.6,31.0,30.36,North,360,0.0,1.0,73,0.00,,,0.00,weatherlink.com 1.10,2013-04-15 11:54:00,
2013-04-15 08:09:00,39.3,31.0,30.36,North,360,0.0,1.0,71,0.00,,,0.00,weatherlink.com 1.10,2013-04-15 12:09:00,
2013-04-15 08:24:00,40.0,31.0,30.37,North,360,0.0,0.0,71,0.00,,,0.00,weatherlink.com 1.10,2013-04-15 12:24:00,
2013-04-15 08:39:00,40.6,31.0,30.38,North,360,0.0,1.0,69,0.00,,,0.00,weatherlink.com 1.10,2013-04-15 12:39:00,
2013-04-15 08:54:00,41.3,31.0,30.39,North,360,0.0,0.0,68,0.00,,,0.00,weatherlink.com 1.10,2013-04-15 12:54:00,
2013-04-15 09:09:00,42.5,32.0,30.39,North,360,1.0,2.0,67,0.00,,,0.00,weatherlink.com 1.10,2013-04-15 13:09:00,
2013-04-15 09:24:00,43.9,31.0,30.39,North,360,0.0,2.0,62,0.00,,,0.00,weatherlink.com 1.10,2013-04-15 13:24:00,
2013-04-15 09:39:00,44.9,30.0,30.40,SSW,192,1.0,4.0,56,0.00,,,0.00,weatherlink.com 1.10,2013-04-15 13:39:00,
2013-04-15 09:54:00,45.3,30.0,30.40,SSE,166,1.0,4.0,56,0.00,,,0.00,weatherlink.com 1.10,2013-04-15 13:54:00,
2013-04-15 10:09:00,45.8,31.0,30.39,ESE,105,2.0,4.0,57,0.00,,,0.00,weatherlink.com 1.10,2013-04-15 14:09:00,
2013-04-15 10:24:00,46.5,32.0,30.39,SSE,148,3.0,4.0,57,0.00,,,0.00,weatherlink.com 1.10,2013-04-15 14:24:00,
2013-04-15 10:39:00,47.1,31.0,30.38,NE,51,3.0,6.0,53,0.00,,,0.00,weatherlink.com 1.10,2013-04-15 14:39:00,
2013-04-15 10:54:00,47.7,32.0,30.38,SW,233,1.0,4.0,55,0.00,,,0.00,weatherlink.com 1.10,2013-04-15 14:54:00,
2013-04-15 11:09:00,48.8,32.0,30.38,ENE,76,1.0,4.0,53,0.00,,,0.00,weatherlink.com 1.10,2013-04-15 15:09:00,
2013-04-15 11:25:00,49.5,32.0,30.38,SSW,196,3.0,9.0,51,0.00,,,0.00,weatherlink.com 1.10,2013-04-15 15:25:00,
2013-04-15 11:40:00,50.3,33.0,30.37,South,171,0.0,8.0,51,0.00,,,0.00,weatherlink.com 1.10,2013-04-15 15:40:00,
2013-04-15 12:10:00,52.1,31.0,30.37,SSE,153,3.0,8.0,45,0.00,,,0.00,weatherlink.com 1.10,2013-04-15 16:10:00,
2013-04-15 12:25:00,52.7,32.0,30.36,SW,215,4.0,5.0,45,0.00,,,0.00,weatherlink.com 1.10,2013-04-15 16:25:00,
2013-04-15 12:40:00,52.9,32.0,30.35,SE,128,3.0,5.0,45,0.00,,,0.00,weatherlink.com 1.10,2013-04-15 16:40:00,
2013-04-15 12:55:00,54.3,34.0,30.34,West,275,2.0,5.0,47,0.00,,,0.00,weatherlink.com 1.10,2013-04-15 16:55:00,
2013-04-15 13:10:00,55.1,32.0,30.34,SW,217,3.0,8.0,42,0.00,,,0.00,weatherlink.com 1.10,2013-04-15 17:10:00,
2013-04-15 13:25:00,56.2,33.0,30.35,SSW,213,4.0,10.0,42,0.00,,,0.00,weatherlink.com 1.10,2013-04-15 17:25:00,
2013-04-15 13:40:00,55.7,33.0,30.34,ENE,63,2.0,6.0,43,0.00,,,0.00,weatherlink.com 1.10,2013-04-15 17:40:00,
2013-04-15 13:55:00,56.3,34.0,30.34,South,180,2.0,5.0,43,0.00,,,0.00,weatherlink.com 1.10,2013-04-15 17:55:00,
2013-04-15 14:10:00,56.7,34.0,30.34,SSE,153,2.0,8.0,43,0.00,,,0.00,weatherlink.com 1.10,2013-04-15 18:10:00,
2013-04-15 14:25:00,57.3,34.0,30.33,SSW,204,4.0,7.0,42,0.00,,,0.00,weatherlink.com 1.10,2013-04-15 18:25:00,
2013-04-15 14:40:00,58.2,35.0,30.32,NE,36,2.0,7.0,42,0.00,,,0.00,weatherlink.com 1.10,2013-04-15 18:40:00,
2013-04-15 14:55:00,59.2,35.0,30.32,North,11,4.0,4.0,40,0.00,,,0.00,weatherlink.com 1.10,2013-04-15 18:55:00,
2013-04-15 15:10:00,59.1,34.0,30.32,South,171,1.0,8.0,39,0.00,,,0.00,weatherlink.com 1.10,2013-04-15 19:10:00,
2013-04-15 15:25:00,58.7,35.0,30.32,ENE,67,4.0,8.0,41,0.00,,,0.00,weatherlink.com 1.10,2013-04-15 19:25:00,
2013-04-15 15:40:00,58.7,35.0,30.31,ESE,118,3.0,9.0,42,0.00,,,0.00,weatherlink.com 1.10,2013-04-15 19:40:00,
2013-04-15 15:55:00,58.1,36.0,30.31,ESE,103,0.0,7.0,44,0.00,,,0.00,weatherlink.com 1.10,2013-04-15 19:55:00,
2013-04-15 16:10:00,59.3,35.0,30.30,ENE,71,1.0,6.0,41,0.00,,,0.00,weatherlink.com 1.10,2013-04-15 20:10:00,
2013-04-15 16:25:00,59.8,35.0,30.30,SSE,156,1.0,9.0,40,0.00,,,0.00,weatherlink.com 1.10,2013-04-15 20:25:00,
2013-04-15 16:40:00,60.5,35.0,30.29,East,85,3.0,8.0,39,0.00,,,0.00,weatherlink.com 1.10,2013-04-15 20:40:00,
2013-04-15 16:55:00,59.9,38.0,30.29,ENE,61,2.0,7.0,44,0.00,,,0.00,weatherlink.com 1.10,2013-04-15 20:55:00,
2013-04-15 17:10:00,60.0,37.0,30.31,SSE,154,3.0,6.0,42,0.00,,,0.00,weatherlink.com 1.10,2013-04-15 21:10:00,
2013-04-15 17:25:00,59.0,36.0,30.31,WSW,238,2.0,8.0,42,0.00,,,0.00,weatherlink.com 1.10,2013-04-15 21:25:00,
2013-04-15 17:40:00,59.5,37.0,30.32,South,180,3.0,5.0,43,0.00,,,0.00,weatherlink.com 1.10,2013-04-15 21:40:00,
2013-04-15 17:55:00,57.5,36.0,30.32,SSE,163,2.0,5.0,44,0.00,,,0.00,weatherlink.com 1.10,2013-04-15 21:55:00,
2013-04-15 18:10:00,57.2,35.0,30.32,SSE,167,4.0,5.0,44,0.00,,,0.00,weatherlink.com 1.10,2013-04-15 22:10:00,
2013-04-15 18:25:00,57.1,36.0,30.33,SE,142,1.0,5.0,45,0.00,,,0.00,weatherlink.com 1.10,2013-04-15 22:25:00,
2013-04-15 18:40:00,56.6,36.0,30.33,SSW,201,0.0,4.0,46,0.00,,,0.00,weatherlink.com 1.10,2013-04-15 22:40:00,
2013-04-15 18:55:00,55.3,35.0,30.33,ESE,113,2.0,4.0,47,0.00,,,0.00,weatherlink.com 1.10,2013-04-15 22:55:00,
2013-04-15 19:10:00,54.1,35.0,30.33,SE,128,1.0,4.0,49,0.00,,,0.00,weatherlink.com 1.10,2013-04-15 23:10:00,
2013-04-15 19:25:00,52.9,35.0,30.34,SE,144,0.0,3.0,52,0.00,,,0.00,weatherlink.com 1.10,2013-04-15 23:25:00,
2013-04-15 19:40:00,51.7,34.0,30.34,SE,139,1.0,3.0,52,0.00,,,0.00,weatherlink.com 1.10,2013-04-15 23:40:00,
2013-04-15 19:55:00,50.5,35.0,30.35,SE,132,2.0,3.0,56,0.00,,,0.00,weatherlink.com 1.10,2013-04-15 23:55:00,
2013-04-15 20:10:00,49.6,35.0,30.35,SE,131,1.0,2.0,58,0.00,,,0.00,weatherlink.com 1.10,2013-04-16 00:10:00,
2013-04-15 20:25:00,48.8,35.0,30.35,SE,131,2.0,2.0,59,0.00,,,0.00,weatherlink.com 1.10,2013-04-16 00:25:00,
2013-04-15 20:40:00,48.2,35.0,30.36,ESE,116,2.0,3.0,60,0.00,,,0.00,weatherlink.com 1.10,2013-04-16 00:40:00,
2013-04-15 20:55:00,47.7,35.0,30.37,SE,132,2.0,3.0,61,0.00,,,0.00,weatherlink.com 1.10,2013-04-16 00:55:00,
2013-04-15 21:10:00,47.5,35.0,30.37,ESE,113,1.0,3.0,62,0.00,,,0.00,weatherlink.com 1.10,2013-04-16 01:10:00,
2013-04-15 21:25:00,46.9,35.0,30.38,ESE,113,1.0,2.0,64,0.00,,,0.00,weatherlink.com 1.10,2013-04-16 01:25:00,
2013-04-15 21:40:00,46.3,35.0,30.39,ESE,113,0.0,2.0,65,0.00,,,0.00,weatherlink.com 1.10,2013-04-16 01:40:00,
2013-04-15 21:55:00,45.9,35.0,30.39,ESE,114,1.0,3.0,66,0.00,,,0.00,weatherlink.com 1.10,2013-04-16 01:55:00,
2013-04-15 22:10:00,45.6,35.0,30.39,SSE,153,1.0,2.0,67,0.00,,,0.00,weatherlink.com 1.10,2013-04-16 02:10:00,
2013-04-15 22:25:00,45.2,35.0,30.39,SSE,153,1.0,2.0,67,0.00,,,0.00,weatherlink.com 1.10,2013-04-16 02:25:00,
2013-04-15 22:40:00,44.9,35.0,30.39,SSE,153,1.0,2.0,69,0.00,,,0.00,weatherlink.com 1.10,2013-04-16 02:40:00,
2013-04-15 22:55:00,44.3,35.0,30.39,SSE,153,0.0,2.0,71,0.00,,,0.00,weatherlink.com 1.10,2013-04-16 02:55:00,
2013-04-15 23:11:00,43.9,35.0,30.39,SSE,153,1.0,1.0,71,0.00,,,0.00,weatherlink.com 1.10,2013-04-16 03:11:00,
2013-04-15 23:25:00,43.6,35.0,30.39,SSE,153,0.0,2.0,71,0.00,,,0.00,weatherlink.com 1.10,2013-04-16 03:25:00,
2013-04-15 23:41:00,43.6,35.0,30.39,SSE,153,0.0,3.0,71,0.00,,,0.00,weatherlink.com 1.10,2013-04-16 03:41:00,
2013-04-15 23:56:00,43.2,35.0,30.39,SSE,153,0.0,2.0,73,0.00,,,0.00,weatherlink.com 1.10,2013-04-16 03:56:00,